createdAt,value
2023-05-09T00:00:42.276Z,0.00
2023-05-09T00:01:42.682Z,0.00
2023-05-09T00:02:43.103Z,0.00
2023-05-09T00:03:43.374Z,0.00
2023-05-09T00:04:43.780Z,0.00
2023-05-09T00:05:44.108Z,0.00
2023-05-09T00:06:44.468Z,0.00
2023-05-09T00:07:44.870Z,0.00
2023-05-09T00:08:45.200Z,0.00
2023-05-09T00:09:45.555Z,0.00
2023-05-09T00:10:45.888Z,0.00
2023-05-09T00:11:46.254Z,0.00
2023-05-09T00:12:46.667Z,0.00
2023-05-09T00:13:46.985Z,0.00
2023-05-09T00:14:47.342Z,0.00
2023-05-09T00:15:47.703Z,0.00
2023-05-09T00:16:48.096Z,0.00
2023-05-09T00:17:48.532Z,0.00
2023-05-09T00:18:48.805Z,0.00
2023-05-09T00:19:49.164Z,0.00
2023-05-09T00:20:49.527Z,0.00
2023-05-09T00:21:49.893Z,0.00
2023-05-09T00:22:50.276Z,0.00
2023-05-09T00:23:50.636Z,0.00
2023-05-09T00:24:50.984Z,0.00
2023-05-09T00:25:51.303Z,0.00
2023-05-09T00:26:51.666Z,0.00
2023-05-09T00:27:52.048Z,0.00
2023-05-09T00:28:52.377Z,0.00
2023-05-09T00:29:52.744Z,0.00
2023-05-09T00:30:53.106Z,0.00
2023-05-09T00:31:53.513Z,0.00
2023-05-09T00:32:53.895Z,0.00
2023-05-09T00:33:54.184Z,0.00
2023-05-09T00:34:54.527Z,0.00
2023-05-09T00:35:54.921Z,0.00
2023-05-09T00:36:55.274Z,0.00
2023-05-09T00:37:55.667Z,0.00
2023-05-09T00:38:55.996Z,0.00
2023-05-09T00:39:56.354Z,0.00
2023-05-09T00:40:56.733Z,0.00
2023-05-09T00:41:57.091Z,0.00
2023-05-09T00:42:57.488Z,0.00
2023-05-09T00:43:57.846Z,0.00
2023-05-09T00:44:58.187Z,0.00
2023-05-09T00:45:58.591Z,0.00
2023-05-09T00:46:58.921Z,0.00
2023-05-09T00:47:59.320Z,0.00
2023-05-09T00:48:59.652Z,0.00
2023-05-09T00:50:00.022Z,0.00
2023-05-09T00:51:00.392Z,0.00
2023-05-09T00:52:00.742Z,0.00
2023-05-09T00:53:01.135Z,0.00
2023-05-09T00:54:01.460Z,0.00
2023-05-09T00:55:01.827Z,0.00
2023-05-09T00:56:02.198Z,0.00
2023-05-09T00:57:02.554Z,0.00
2023-05-09T00:58:02.982Z,0.00
2023-05-09T00:59:03.279Z,0.00
2023-05-09T01:00:03.636Z,0.00
2023-05-09T01:01:04.023Z,0.00
2023-05-09T01:02:04.385Z,0.00
2023-05-09T01:03:04.886Z,0.00
2023-05-09T01:04:05.101Z,0.00
2023-05-09T01:05:05.476Z,0.00
2023-05-09T01:06:05.836Z,0.00
2023-05-09T01:07:06.196Z,0.00
2023-05-09T01:08:06.583Z,0.00
2023-05-09T01:09:06.912Z,0.00
2023-05-09T01:10:07.283Z,0.00
2023-05-09T01:11:07.652Z,0.00
2023-05-09T01:12:08.052Z,0.00
2023-05-09T01:13:08.416Z,0.00
2023-05-09T01:14:08.715Z,0.00
2023-05-09T01:15:09.066Z,0.00
2023-05-09T01:16:09.487Z,0.00
2023-05-09T01:17:09.816Z,0.00
2023-05-09T01:18:10.239Z,0.00
2023-05-09T01:19:10.523Z,0.00
2023-05-09T01:20:10.926Z,0.00
2023-05-09T01:21:11.255Z,0.00
2023-05-09T01:22:11.627Z,0.00
2023-05-09T01:23:11.965Z,0.00
2023-05-09T01:24:12.282Z,0.00
2023-05-09T01:25:12.749Z,0.00
2023-05-09T01:26:13.049Z,0.00
2023-05-09T01:27:13.374Z,0.00
2023-05-09T01:28:13.768Z,0.00
2023-05-09T01:29:14.099Z,0.00
2023-05-09T01:30:14.455Z,0.00
2023-05-09T01:31:14.828Z,0.00
2023-05-09T01:32:15.193Z,0.00
2023-05-09T01:33:15.547Z,0.00
2023-05-09T01:34:15.876Z,0.00
2023-05-09T01:35:16.446Z,0.00
2023-05-09T01:36:16.590Z,0.00
2023-05-09T01:37:16.970Z,0.00
2023-05-09T01:38:17.353Z,0.00
2023-05-09T01:39:17.707Z,0.00
2023-05-09T01:40:18.073Z,0.00
2023-05-09T01:41:18.431Z,0.00
2023-05-09T01:42:18.807Z,0.00
2023-05-09T01:43:19.202Z,0.00
2023-05-09T01:44:19.530Z,0.00
2023-05-09T01:45:19.865Z,0.00
2023-05-09T01:46:20.267Z,0.00
2023-05-09T01:47:20.590Z,0.00
2023-05-09T01:48:20.976Z,0.00
2023-05-09T01:49:21.301Z,0.00
2023-05-09T01:50:21.678Z,0.00
2023-05-09T01:51:22.061Z,0.00
2023-05-09T01:52:22.418Z,0.00
2023-05-09T01:53:22.808Z,0.00
2023-05-09T01:54:23.159Z,0.00
2023-05-09T01:55:23.515Z,0.00
2023-05-09T01:56:23.883Z,0.00
2023-05-09T01:57:24.281Z,0.00
2023-05-09T01:58:24.616Z,0.00
2023-05-09T01:59:24.977Z,0.00
2023-05-09T02:00:25.353Z,0.00
2023-05-09T02:01:25.714Z,0.00
2023-05-09T02:02:26.177Z,0.00
2023-05-09T02:03:26.462Z,0.00
2023-05-09T02:04:26.785Z,0.00
2023-05-09T02:05:27.151Z,0.00
2023-05-09T02:06:27.511Z,0.00
2023-05-09T02:07:27.884Z,0.00
2023-05-09T02:08:28.254Z,0.00
2023-05-09T02:09:28.631Z,0.00
2023-05-09T02:10:28.955Z,0.00
2023-05-09T02:11:29.325Z,0.00
2023-05-09T02:12:29.687Z,0.00
2023-05-09T02:13:30.075Z,0.00
2023-05-09T02:14:30.410Z,0.00
2023-05-09T02:15:30.741Z,0.00
2023-05-09T02:16:31.244Z,0.00
2023-05-09T02:17:31.476Z,0.00
2023-05-09T02:18:31.829Z,0.00
2023-05-09T02:19:32.163Z,0.00
2023-05-09T02:20:32.518Z,0.00
2023-05-09T02:21:32.894Z,0.00
2023-05-09T02:22:33.224Z,0.00
2023-05-09T02:23:33.604Z,0.00
2023-05-09T02:24:33.974Z,0.00
2023-05-09T02:25:34.306Z,0.00
2023-05-09T02:26:34.682Z,0.00
2023-05-09T02:27:35.034Z,0.00
2023-05-09T02:28:35.453Z,0.00
2023-05-09T02:29:35.772Z,0.00
2023-05-09T02:30:36.120Z,0.00
2023-05-09T02:31:36.551Z,0.00
2023-05-09T02:32:36.831Z,0.00
2023-05-09T02:33:37.208Z,0.00
2023-05-09T02:34:37.532Z,0.00
2023-05-09T02:35:37.913Z,0.00
2023-05-09T02:36:38.266Z,0.00
2023-05-09T02:37:38.617Z,0.00
2023-05-09T02:38:39.026Z,0.00
2023-05-09T02:39:39.367Z,0.00
2023-05-09T02:40:39.713Z,0.00
2023-05-09T02:41:40.068Z,0.00
2023-05-09T02:42:40.428Z,0.00
2023-05-09T02:43:43.577Z,0.00
2023-05-09T02:44:41.171Z,0.00
2023-05-09T02:45:41.628Z,0.00
2023-05-09T02:46:47.783Z,1.00
2023-05-09T02:47:42.104Z,1.00
2023-05-09T02:48:42.264Z,1.00
2023-05-09T02:49:42.536Z,1.00
2023-05-09T02:50:42.890Z,2.00
2023-05-09T02:51:43.217Z,0.00
2023-05-09T02:52:43.454Z,2.00
2023-05-09T02:53:43.785Z,2.00
2023-05-09T02:54:44.055Z,1.00
2023-05-09T02:55:44.364Z,3.00
2023-05-09T02:56:44.719Z,0.00
2023-05-09T02:57:44.968Z,2.00
2023-05-09T02:58:45.149Z,5.00
2023-05-09T02:59:45.435Z,5.00
2023-05-09T03:00:45.727Z,4.00
2023-05-09T03:01:46.037Z,5.00
2023-05-09T03:02:46.315Z,1.00
2023-05-09T03:03:46.862Z,3.00
2023-05-09T03:04:46.869Z,6.00
2023-05-09T03:05:47.050Z,7.00
2023-05-09T03:06:47.327Z,9.00
2023-05-09T03:07:47.600Z,12.00
2023-05-09T03:08:47.788Z,12.00
2023-05-09T03:09:47.945Z,14.00
2023-05-09T03:10:48.107Z,12.00
2023-05-09T03:11:48.389Z,13.00
2023-05-09T03:12:48.573Z,14.00
2023-05-09T03:13:48.848Z,12.00
2023-05-09T03:14:49.001Z,14.00
2023-05-09T03:15:49.192Z,16.00
2023-05-09T03:16:49.439Z,19.00
2023-05-09T03:17:49.774Z,25.00
2023-05-09T03:18:49.937Z,24.00
2023-05-09T03:19:50.202Z,27.00
2023-05-09T03:20:50.366Z,36.00
2023-05-09T03:21:50.667Z,36.00
2023-05-09T03:22:50.968Z,48.00
2023-05-09T03:23:51.158Z,50.00
2023-05-09T03:24:51.313Z,65.00
2023-05-09T03:25:51.606Z,70.00
2023-05-09T03:26:51.786Z,81.00
2023-05-09T03:30:22.669Z,126.00
2023-05-09T03:31:23.865Z,143.00
2023-05-09T03:32:24.193Z,155.00
2023-05-09T03:33:24.343Z,178.00
2023-05-09T03:34:24.538Z,199.00
2023-05-09T03:35:24.741Z,217.00
2023-05-09T03:36:24.992Z,237.00
2023-05-09T03:37:26.927Z,259.00
2023-05-09T03:38:25.351Z,278.00
2023-05-09T03:39:25.674Z,297.00
2023-05-09T03:40:25.803Z,319.00
2023-05-09T03:41:25.978Z,345.00
2023-05-09T03:42:26.275Z,366.00
2023-05-09T03:43:26.462Z,388.00
2023-05-09T03:44:26.671Z,408.00
2023-05-09T03:45:26.825Z,441.00
2023-05-09T03:46:27.083Z,469.00
2023-05-09T03:47:27.201Z,490.00
2023-05-09T03:48:27.395Z,516.00
2023-05-09T03:49:27.722Z,556.00
2023-05-09T03:50:27.988Z,578.00
2023-05-09T03:51:28.149Z,607.00
2023-05-09T03:52:28.336Z,639.00
2023-05-09T03:53:28.497Z,669.00
2023-05-09T03:54:28.811Z,695.00
2023-05-09T03:55:28.978Z,726.00
2023-05-09T03:56:29.157Z,757.00
2023-05-09T03:57:29.464Z,786.00
2023-05-09T03:58:29.756Z,820.00
2023-05-09T03:59:29.969Z,852.00
2023-05-09T04:00:30.221Z,873.00
2023-05-09T04:01:30.420Z,908.00
2023-05-09T04:02:30.776Z,935.00
2023-05-09T04:03:31.070Z,971.00
2023-05-09T04:04:31.213Z,993.00
2023-05-09T04:05:31.355Z,1016.00
2023-05-09T04:06:31.548Z,1040.00
2023-05-09T04:07:31.759Z,1065.00
2023-05-09T04:08:31.906Z,1095.00
2023-05-09T04:09:32.097Z,1125.00
2023-05-09T04:10:32.255Z,1156.00
2023-05-09T04:11:32.420Z,1193.00
2023-05-09T04:12:32.596Z,1239.00
2023-05-09T04:13:32.761Z,1284.00
2023-05-09T04:14:32.960Z,1332.00
2023-05-09T04:15:33.126Z,1378.00
2023-05-09T04:16:33.371Z,1450.00
2023-05-09T04:17:33.492Z,1514.00
2023-05-09T04:18:33.652Z,1561.00
2023-05-09T04:19:33.882Z,1610.00
2023-05-09T04:20:34.043Z,1647.00
2023-05-09T04:21:34.236Z,1684.00
2023-05-09T04:22:34.469Z,1742.00
2023-05-09T04:23:34.618Z,1793.00
2023-05-09T04:24:34.822Z,1827.00
2023-05-09T04:25:34.980Z,1857.00
2023-05-09T04:26:35.172Z,1889.00
2023-05-09T04:27:35.358Z,1933.00
2023-05-09T04:28:35.555Z,1970.00
2023-05-09T04:29:35.761Z,2024.00
2023-05-09T04:30:35.943Z,2078.00
2023-05-09T04:31:36.220Z,2130.00
2023-05-09T04:32:36.358Z,2208.00
2023-05-09T04:33:36.480Z,2312.00
2023-05-09T04:34:36.693Z,2448.00
2023-05-09T04:35:36.894Z,2645.00
2023-05-09T04:36:37.096Z,2904.00
2023-05-09T04:37:37.287Z,3127.00
2023-05-09T04:38:37.430Z,3340.00
2023-05-09T04:39:37.678Z,3317.00
2023-05-09T04:40:37.800Z,3188.00
2023-05-09T04:41:37.999Z,3166.00
2023-05-09T04:42:38.313Z,3211.00
2023-05-09T04:43:38.375Z,3228.00
2023-05-09T04:44:38.607Z,3365.00
2023-05-09T04:45:38.745Z,3611.00
2023-05-09T04:46:38.996Z,3507.00
2023-05-09T04:47:39.124Z,3487.00
2023-05-09T04:48:39.306Z,3616.00
2023-05-09T04:49:39.520Z,3811.00
2023-05-09T04:50:39.684Z,3831.00
2023-05-09T04:51:39.882Z,3866.00
2023-05-09T04:52:40.065Z,3737.00
2023-05-09T04:53:40.226Z,3707.00
2023-05-09T04:54:40.419Z,3723.00
2023-05-09T04:55:40.609Z,3705.00
2023-05-09T04:56:40.804Z,3730.00
2023-05-09T04:57:40.990Z,3905.00
2023-05-09T04:58:41.196Z,3986.00
2023-05-09T04:59:41.394Z,3932.00
2023-05-09T05:00:41.547Z,4022.00
2023-05-09T05:01:41.788Z,4100.00
2023-05-09T05:02:41.938Z,4116.00
2023-05-09T05:03:42.101Z,4122.00
2023-05-09T05:04:42.347Z,4127.00
2023-05-09T05:05:42.525Z,4203.00
2023-05-09T05:06:42.650Z,4170.00
2023-05-09T05:07:42.847Z,4164.00
2023-05-09T05:08:43.019Z,4262.00
2023-05-09T05:09:43.238Z,4299.00
2023-05-09T05:10:43.401Z,4393.00
2023-05-09T05:11:57.068Z,4505.00
2023-05-09T05:12:43.799Z,4501.00
2023-05-09T05:13:44.019Z,4462.00
2023-05-09T05:14:44.164Z,4424.00
2023-05-09T05:15:44.426Z,4487.00
2023-05-09T05:16:44.505Z,4189.00
2023-05-09T05:17:44.725Z,3756.00
2023-05-09T05:18:44.879Z,3187.00
2023-05-09T05:19:45.075Z,3099.00
2023-05-09T05:20:45.234Z,3085.00
2023-05-09T05:21:45.423Z,3092.00
2023-05-09T05:22:45.641Z,3100.00
2023-05-09T05:23:45.788Z,3103.00
2023-05-09T05:24:46.018Z,3098.00
2023-05-09T05:25:46.173Z,3127.00
2023-05-09T05:26:46.363Z,3198.00
2023-05-09T05:27:46.538Z,3237.00
2023-05-09T05:28:46.742Z,3237.00
2023-05-09T05:29:46.952Z,3248.00
2023-05-09T05:30:47.086Z,3280.00
2023-05-09T05:31:47.402Z,3287.00
2023-05-09T05:32:47.509Z,3252.00
2023-05-09T05:33:47.649Z,3293.00
2023-05-09T05:34:47.816Z,3338.00
2023-05-09T05:35:47.978Z,3331.00
2023-05-09T05:36:48.180Z,3352.00
2023-05-09T05:37:49.103Z,3367.00
2023-05-09T05:38:48.528Z,3408.00
2023-05-09T05:39:48.753Z,3378.00
2023-05-09T05:40:48.879Z,3356.00
2023-05-09T05:41:49.068Z,3359.00
2023-05-09T05:42:49.268Z,3275.00
2023-05-09T05:43:49.509Z,3173.00
2023-05-09T05:44:49.700Z,3113.00
2023-05-09T05:45:49.898Z,3120.00
2023-05-09T05:46:50.010Z,3125.00
2023-05-09T05:47:50.356Z,3124.00
2023-05-09T05:48:50.404Z,3120.00
2023-05-09T05:49:50.626Z,3127.00
2023-05-09T05:50:50.777Z,3127.00
2023-05-09T05:51:50.975Z,3122.00
2023-05-09T05:52:51.159Z,3118.00
2023-05-09T05:53:51.341Z,3119.00
2023-05-09T05:54:51.802Z,3124.00
2023-05-09T05:55:51.715Z,3140.00
2023-05-09T05:56:51.911Z,3152.00
2023-05-09T05:57:52.076Z,3163.00
2023-05-09T05:58:52.271Z,3175.00
2023-05-09T05:59:52.485Z,3182.00
2023-05-09T06:00:52.635Z,3192.00
2023-05-09T06:01:52.899Z,3203.00
2023-05-09T06:02:53.112Z,3211.00
2023-05-09T06:03:53.278Z,3214.00
2023-05-09T06:04:55.326Z,3217.00
2023-05-09T06:05:53.549Z,3223.00
2023-05-09T06:06:53.738Z,3234.00
2023-05-09T06:07:53.929Z,3244.00
2023-05-09T06:08:54.125Z,3266.00
2023-05-09T06:09:54.341Z,3290.00
2023-05-09T06:10:54.507Z,3315.00
2023-05-09T06:11:54.697Z,3337.00
2023-05-09T06:12:54.901Z,3363.00
2023-05-09T06:13:55.074Z,3384.00
2023-05-09T06:14:55.269Z,3407.00
2023-05-09T06:15:57.702Z,3430.00
2023-05-09T06:16:55.682Z,3454.00
2023-05-09T06:17:55.930Z,3479.00
2023-05-09T06:18:56.341Z,3508.00
2023-05-09T06:19:56.210Z,3538.00
2023-05-09T06:20:56.400Z,3562.00
2023-05-09T06:21:56.588Z,3591.00
2023-05-09T06:22:56.768Z,3626.00
2023-05-09T06:24:08.501Z,3657.00
2023-05-09T06:24:57.179Z,3699.00
2023-05-09T06:25:57.374Z,3737.00
2023-05-09T06:26:57.562Z,3780.00
2023-05-09T06:27:57.747Z,3819.00
2023-05-09T06:28:57.948Z,3857.00
2023-05-09T06:29:58.142Z,3900.00
2023-05-09T06:30:58.309Z,3940.00
2023-05-09T06:31:58.606Z,3978.00
2023-05-09T06:32:58.767Z,4021.00
2023-05-09T06:33:58.842Z,4077.00
2023-05-09T06:34:59.055Z,4140.00
2023-05-09T06:35:59.236Z,4224.00
2023-05-09T06:36:59.385Z,4297.00
2023-05-09T06:37:59.566Z,4380.00
2023-05-09T06:38:59.757Z,4461.00
2023-05-09T06:39:59.968Z,4527.00
2023-05-09T06:41:00.116Z,4596.00
2023-05-09T06:42:00.263Z,4677.00
2023-05-09T06:43:00.443Z,4760.00
2023-05-09T06:44:00.652Z,4850.00
2023-05-09T06:45:00.938Z,4950.00
2023-05-09T06:46:01.060Z,5048.00
2023-05-09T06:47:01.226Z,5154.00
2023-05-09T06:48:01.441Z,5275.00
2023-05-09T06:49:01.603Z,5405.00
2023-05-09T06:50:01.798Z,5542.00
2023-05-09T06:51:01.949Z,5690.00
2023-05-09T06:52:02.130Z,5832.00
2023-05-09T06:53:02.327Z,5960.00
2023-05-09T06:54:02.531Z,6085.00
2023-05-09T06:55:02.709Z,6219.00
2023-05-09T06:56:02.870Z,6323.00
2023-05-09T06:57:03.058Z,6424.00
2023-05-09T06:58:03.254Z,6519.00
2023-05-09T06:59:03.454Z,6608.00
2023-05-09T07:00:03.660Z,6689.00
2023-05-09T07:01:03.841Z,6800.00
2023-05-09T07:02:04.152Z,6917.00
2023-05-09T07:03:04.354Z,7015.00
2023-05-09T07:04:04.380Z,7115.00
2023-05-09T07:05:04.621Z,7228.00
2023-05-09T07:06:04.746Z,7331.00
2023-05-09T07:07:04.936Z,7420.00
2023-05-09T07:08:05.120Z,7485.00
2023-05-09T07:09:05.316Z,7566.00
2023-05-09T07:10:11.172Z,7625.00
2023-05-09T07:11:05.685Z,7742.00
2023-05-09T07:12:05.894Z,7848.00
2023-05-09T07:13:06.080Z,7937.00
2023-05-09T07:14:06.265Z,7994.00
2023-05-09T07:15:06.440Z,8078.00
2023-05-09T07:16:06.753Z,8125.00
2023-05-09T07:17:22.035Z,8139.00
2023-05-09T07:18:07.031Z,8133.00
2023-05-09T07:19:07.135Z,8117.00
2023-05-09T07:20:07.346Z,8098.00
2023-05-09T07:21:07.512Z,8091.00
2023-05-09T07:22:07.805Z,8055.00
2023-05-09T07:23:07.896Z,8026.00
2023-05-09T07:24:08.089Z,7965.00
2023-05-09T07:25:08.343Z,7887.00
2023-05-09T07:26:08.476Z,7791.00
2023-05-09T07:27:08.631Z,7746.00
2023-05-09T07:28:08.850Z,7673.00
2023-05-09T07:29:09.061Z,7629.00
2023-05-09T07:30:09.291Z,7577.00
2023-05-09T07:31:09.424Z,7506.00
2023-05-09T07:32:09.639Z,7437.00
2023-05-09T07:33:09.776Z,7386.00
2023-05-09T07:34:09.948Z,7353.00
2023-05-09T07:35:10.180Z,7325.00
2023-05-09T07:36:10.321Z,7337.00
2023-05-09T07:37:10.797Z,7374.00
2023-05-09T07:38:10.716Z,7426.00
2023-05-09T07:39:10.888Z,7473.00
2023-05-09T07:40:11.110Z,7500.00
2023-05-09T07:41:11.258Z,7426.00
2023-05-09T07:42:11.455Z,7358.00
2023-05-09T07:43:11.597Z,7209.00
2023-05-09T07:44:11.794Z,7041.00
2023-05-09T07:45:12.032Z,6934.00
2023-05-09T07:46:12.246Z,6851.00
2023-05-09T07:47:12.336Z,6806.00
2023-05-09T07:48:12.551Z,6777.00
2023-05-09T07:49:12.731Z,6766.00
2023-05-09T07:50:12.920Z,6763.00
2023-05-09T07:51:13.089Z,6761.00
2023-05-09T07:52:13.244Z,6774.00
2023-05-09T07:53:13.451Z,6769.00
2023-05-09T07:54:13.624Z,6739.00
2023-05-09T07:55:14.145Z,6720.00
2023-05-09T07:56:13.994Z,6693.00
2023-05-09T07:57:14.196Z,6636.00
2023-05-09T07:58:14.366Z,6649.00
2023-05-09T07:59:14.567Z,6656.00
2023-05-09T08:00:14.779Z,6647.00
2023-05-09T08:01:14.944Z,6599.00
2023-05-09T08:02:15.197Z,6515.00
2023-05-09T08:03:15.624Z,6322.00
2023-05-09T08:04:15.501Z,6178.00
2023-05-09T08:05:15.989Z,6068.00
2023-05-09T08:06:15.846Z,5954.00
2023-05-09T08:07:16.056Z,5781.00
2023-05-09T08:08:16.281Z,5687.00
2023-05-09T08:09:16.413Z,5660.00
2023-05-09T08:10:16.686Z,5624.00
2023-05-09T08:11:16.778Z,5601.00
2023-05-09T08:12:16.984Z,5633.00
2023-05-09T08:13:17.216Z,5672.00
2023-05-09T08:14:17.362Z,5756.00
2023-05-09T08:15:17.738Z,5851.00
2023-05-09T08:16:17.823Z,5935.00
2023-05-09T08:17:17.941Z,6070.00
2023-05-09T08:18:18.130Z,6242.00
2023-05-09T08:19:18.323Z,6332.00
2023-05-09T08:20:18.544Z,6407.00
2023-05-09T08:21:20.814Z,6529.00
2023-05-09T08:22:18.900Z,6725.00
2023-05-09T08:23:19.089Z,6837.00
2023-05-09T08:24:19.282Z,6888.00
2023-05-09T08:25:19.493Z,6881.00
2023-05-09T08:26:19.668Z,6822.00
2023-05-09T08:27:19.875Z,6743.00
2023-05-09T08:28:20.933Z,6695.00
2023-05-09T08:29:20.223Z,6606.00
2023-05-09T08:30:20.448Z,6547.00
2023-05-09T08:31:20.614Z,6516.00
2023-05-09T08:32:20.751Z,6505.00
2023-05-09T08:33:20.945Z,6515.00
2023-05-09T08:34:21.140Z,6478.00
2023-05-09T08:35:21.366Z,6394.00
2023-05-09T08:36:21.527Z,6276.00
2023-05-09T08:37:21.721Z,6162.00
2023-05-09T08:38:21.940Z,6080.00
2023-05-09T08:39:22.106Z,6022.00
2023-05-09T08:40:22.472Z,6040.00
2023-05-09T08:41:22.474Z,6070.00
2023-05-09T08:42:25.521Z,6072.00
2023-05-09T08:43:22.886Z,6081.00
2023-05-09T08:44:23.053Z,6070.00
2023-05-09T08:45:23.252Z,6089.00
2023-05-09T08:46:23.462Z,6161.00
2023-05-09T08:47:23.627Z,6192.00
2023-05-09T08:48:23.796Z,6173.00
2023-05-09T08:49:23.955Z,6184.00
2023-05-09T08:50:24.180Z,6161.00
2023-05-09T08:51:24.360Z,6204.00
2023-05-09T08:52:24.522Z,6259.00
2023-05-09T08:53:24.714Z,6339.00
2023-05-09T08:54:24.893Z,6448.00
2023-05-09T08:55:25.132Z,6560.00
2023-05-09T08:56:25.288Z,6672.00
2023-05-09T08:57:25.473Z,6817.00
2023-05-09T08:58:25.657Z,6913.00
2023-05-09T08:59:25.838Z,7037.00
2023-05-09T09:00:26.057Z,7120.00
2023-05-09T09:01:26.272Z,7196.00
2023-05-09T09:02:26.455Z,7213.00
2023-05-09T09:03:26.622Z,7240.00
2023-05-09T09:04:26.833Z,7317.00
2023-05-09T09:05:40.692Z,7262.00
2023-05-09T09:06:27.185Z,7125.00
2023-05-09T09:07:28.389Z,7060.00
2023-05-09T09:08:27.611Z,7035.00
2023-05-09T09:09:27.756Z,6997.00
2023-05-09T09:10:27.951Z,7356.00
2023-05-09T09:11:28.130Z,9778.00
2023-05-09T09:12:28.329Z,12139.00
2023-05-09T09:13:28.634Z,12024.00
2023-05-09T09:14:28.711Z,11681.00
2023-05-09T09:15:28.940Z,13216.00
2023-05-09T09:16:29.188Z,12872.00
2023-05-09T09:17:29.346Z,12786.00
2023-05-09T09:18:29.518Z,12793.00
2023-05-09T09:19:29.718Z,13643.00
2023-05-09T09:20:29.936Z,13836.00
2023-05-09T09:21:30.101Z,13366.00
2023-05-09T09:22:30.285Z,13682.00
2023-05-09T09:23:30.505Z,12959.00
2023-05-09T09:24:30.681Z,11448.00
2023-05-09T09:25:30.905Z,11927.00
2023-05-09T09:26:31.044Z,12740.00
2023-05-09T09:27:31.237Z,12487.00
2023-05-09T09:28:31.442Z,12616.00
2023-05-09T09:29:31.653Z,15841.00
2023-05-09T09:30:31.872Z,15041.00
2023-05-09T09:31:32.097Z,12383.00
2023-05-09T09:32:32.266Z,13370.00
2023-05-09T09:33:32.463Z,14299.00
2023-05-09T09:34:33.915Z,15199.00
2023-05-09T09:35:32.895Z,15992.00
2023-05-09T09:36:33.082Z,14765.00
2023-05-09T09:37:33.260Z,13784.00
2023-05-09T09:38:33.464Z,14201.00
2023-05-09T09:39:33.671Z,14919.00
2023-05-09T09:40:33.917Z,15497.00
2023-05-09T09:41:34.043Z,15383.00
2023-05-09T09:42:34.264Z,15390.00
2023-05-09T09:43:34.474Z,17696.00
2023-05-09T09:44:34.682Z,17833.00
2023-05-09T09:45:34.938Z,16527.00
2023-05-09T09:46:35.180Z,18559.00
2023-05-09T09:47:35.348Z,20908.00
2023-05-09T09:48:35.558Z,23214.00
2023-05-09T09:49:35.659Z,18477.00
2023-05-09T09:50:35.833Z,16947.00
2023-05-09T09:51:36.023Z,23316.00
2023-05-09T09:52:36.222Z,27016.00
2023-05-09T09:53:36.442Z,24564.00
2023-05-09T09:54:36.646Z,21973.00
2023-05-09T09:55:36.859Z,21871.00
2023-05-09T09:56:37.096Z,24210.00
2023-05-09T09:57:37.288Z,25413.00
2023-05-09T09:58:37.503Z,24378.00
2023-05-09T09:59:37.716Z,23648.00
2023-05-09T10:00:37.940Z,23840.00
2023-05-09T10:01:38.140Z,21011.00
2023-05-09T10:02:38.961Z,21708.00
2023-05-09T10:03:38.577Z,25176.00
2023-05-09T10:04:38.838Z,25710.00
2023-05-09T10:05:38.997Z,25049.00
2023-05-09T10:06:39.174Z,22446.00
2023-05-09T10:07:39.334Z,22114.00
2023-05-09T10:08:39.547Z,23586.00
2023-05-09T10:09:39.758Z,26586.00
2023-05-09T10:10:39.986Z,24911.00
2023-05-09T10:11:40.204Z,24441.00
2023-05-09T10:12:40.472Z,31437.00
2023-05-09T10:13:40.594Z,81417.00
2023-05-09T10:14:40.816Z,75931.00
2023-05-09T10:15:52.310Z,75753.00
2023-05-09T10:16:44.462Z,75649.00
2023-05-09T10:17:41.577Z,75358.00
2023-05-09T10:18:41.912Z,75191.00
2023-05-09T10:19:41.817Z,75405.00
2023-05-09T10:20:41.995Z,75781.00
2023-05-09T10:21:42.230Z,75854.00
2023-05-09T10:22:42.418Z,75464.00
2023-05-09T10:23:42.615Z,75224.00
2023-05-09T10:24:42.828Z,75429.00
2023-05-09T10:25:43.047Z,75641.00
2023-05-09T10:26:43.299Z,75672.00
2023-05-09T10:27:43.466Z,75835.00
2023-05-09T10:28:43.648Z,76025.00
2023-05-09T10:29:43.872Z,76857.00
2023-05-09T10:30:44.046Z,78703.00
2023-05-09T10:31:44.343Z,79780.00
2023-05-09T10:32:44.508Z,78116.00
2023-05-09T10:33:44.672Z,77402.00
2023-05-09T10:34:44.862Z,75766.00
2023-05-09T10:35:45.045Z,75797.00
2023-05-09T10:36:45.224Z,80497.00
2023-05-09T10:37:45.483Z,80322.00
2023-05-09T10:38:45.640Z,77299.00
2023-05-09T10:39:45.843Z,77287.00
2023-05-09T10:40:46.065Z,74699.00
2023-05-09T10:41:46.247Z,75290.00
2023-05-09T10:42:46.505Z,77244.00
2023-05-09T10:43:46.675Z,78209.00
2023-05-09T10:44:46.858Z,78712.00
2023-05-09T10:45:47.070Z,79475.00
2023-05-09T10:46:47.348Z,79733.00
2023-05-09T10:47:47.548Z,79813.00
2023-05-09T10:48:47.658Z,80112.00
2023-05-09T10:49:47.835Z,76548.00
2023-05-09T10:50:48.106Z,76927.00
2023-05-09T10:51:48.267Z,74921.00
2023-05-09T10:52:48.487Z,77879.00
2023-05-09T10:53:48.749Z,80453.00
2023-05-09T10:54:48.881Z,78824.00
2023-05-09T10:55:49.078Z,78343.00
2023-05-09T10:56:49.242Z,80003.00
2023-05-09T10:57:49.479Z,79040.00
2023-05-09T10:58:49.731Z,80043.00
2023-05-09T10:59:49.842Z,79874.00
2023-05-09T11:00:50.048Z,79401.00
2023-05-09T11:01:50.301Z,77886.00
2023-05-09T11:02:50.553Z,79927.00
2023-05-09T11:03:50.800Z,79800.00
2023-05-09T11:04:50.857Z,79345.00
2023-05-09T11:05:51.087Z,79131.00
2023-05-09T11:06:51.673Z,78337.00
2023-05-09T11:07:52.345Z,78149.00
2023-05-09T11:08:51.680Z,79232.00
2023-05-09T11:09:51.932Z,79518.00
2023-05-09T11:10:52.091Z,77845.00
2023-05-09T11:11:52.303Z,76008.00
2023-05-09T11:12:52.584Z,74596.00
2023-05-09T11:13:52.725Z,75144.00
2023-05-09T11:14:52.908Z,77219.00
2023-05-09T11:15:53.188Z,77777.00
2023-05-09T11:16:53.297Z,78205.00
2023-05-09T11:17:53.567Z,77436.00
2023-05-09T11:18:53.740Z,77795.00
2023-05-09T11:19:53.968Z,77630.00
2023-05-09T11:20:54.157Z,77110.00
2023-05-09T11:21:54.329Z,77605.00
2023-05-09T11:22:54.544Z,77759.00
2023-05-09T11:23:55.335Z,78786.00
2023-05-09T11:24:54.929Z,78233.00
2023-05-09T11:25:55.133Z,79346.00
2023-05-09T11:26:55.318Z,78777.00
2023-05-09T11:27:55.536Z,77288.00
2023-05-09T11:28:55.708Z,77004.00
2023-05-09T11:29:55.944Z,77062.00
2023-05-09T11:30:56.618Z,76846.00
2023-05-09T11:31:56.350Z,77355.00
2023-05-09T11:32:56.598Z,77481.00
2023-05-09T11:33:56.713Z,77433.00
2023-05-09T11:34:56.938Z,76736.00
2023-05-09T11:35:57.158Z,76645.00
2023-05-09T11:36:57.337Z,76986.00
2023-05-09T11:37:57.569Z,76520.00
2023-05-09T11:38:57.761Z,76088.00
2023-05-09T11:39:57.940Z,76319.00
2023-05-09T11:40:58.930Z,75910.00
2023-05-09T11:41:58.342Z,76025.00
2023-05-09T11:42:59.036Z,76001.00
2023-05-09T11:43:58.761Z,75875.00
2023-05-09T11:44:58.912Z,76333.00
2023-05-09T11:45:59.145Z,76138.00
2023-05-09T11:46:59.308Z,76325.00
2023-05-09T11:47:59.551Z,76661.00
2023-05-09T11:48:59.706Z,77437.00
2023-05-09T11:49:59.910Z,75592.00
2023-05-09T11:51:00.145Z,25832.00
2023-05-09T11:52:00.358Z,17384.00
2023-05-09T11:53:00.552Z,16476.00
2023-05-09T11:54:00.716Z,16119.00
2023-05-09T11:55:00.921Z,15977.00
2023-05-09T11:56:01.135Z,15949.00
2023-05-09T11:57:01.344Z,16042.00
2023-05-09T11:58:01.591Z,16197.00
2023-05-09T11:59:01.754Z,16720.00
2023-05-09T12:00:01.951Z,21316.00
2023-05-09T12:01:02.182Z,36828.00
2023-05-09T12:02:02.354Z,74450.00
2023-05-09T12:03:02.620Z,75501.00
2023-05-09T12:04:02.865Z,75696.00
2023-05-09T12:05:02.951Z,75272.00
2023-05-09T12:06:03.113Z,75283.00
2023-05-09T12:07:03.288Z,32322.00
2023-05-09T12:08:03.487Z,26964.00
2023-05-09T12:09:03.669Z,24541.00
2023-05-09T12:10:03.887Z,24404.00
2023-05-09T12:11:04.103Z,24941.00
2023-05-09T12:12:04.304Z,24826.00
2023-05-09T12:13:04.563Z,23294.00
2023-05-09T12:14:04.691Z,22072.00
2023-05-09T12:15:04.923Z,22808.00
2023-05-09T12:16:05.101Z,24245.00
2023-05-09T12:17:05.290Z,25425.00
2023-05-09T12:18:05.798Z,25775.00
2023-05-09T12:19:05.737Z,25161.00
2023-05-09T12:20:05.938Z,24702.00
2023-05-09T12:21:06.101Z,24479.00
2023-05-09T12:22:06.292Z,24397.00
2023-05-09T12:23:06.521Z,25168.00
2023-05-09T12:24:06.706Z,26717.00
2023-05-09T12:25:06.914Z,25405.00